This is the latest recevied weather packets stored in our database for station/object TG9SRP-22. If no packets are shown the sender has not sent any weather packets the latest 10 day(s).
| Time | Temp. | Humidity | Pressure | Rain* | Wind** | Luminosity | Snow |
|---|---|---|---|---|---|---|---|
| 1777829255 | 23.89° C | 54% | 1015 hPa | 0 mm | - | - | - |
| 1777828654 | 24.44° C | 52% | 1015 hPa | 0 mm | - | - | - |
| 1777828054 | 25° C | 50% | 1015 hPa | 0 mm | - | - | - |
| 1777827453 | 23.89° C | 53% | 1015 hPa | 0 mm | - | - | - |
| 1777826853 | 23.89° C | 53% | 1016 hPa | 0 mm | - | - | - |
| 1777826252 | 22.78° C | 57% | 1016 hPa | 0 mm | - | - | - |
| 1777825651 | 23.33° C | 55% | 1016 hPa | 0 mm | - | - | - |
| 1777825051 | 23.89° C | 53% | 1016 hPa | 0 mm | - | - | - |
| 1777824450 | 23.89° C | 53% | 1016 hPa | 0 mm | - | - | - |
| 1777823849 | 22.22° C | 57% | 1016 hPa | 0 mm | - | - | - |
| 1777823249 | 22.22° C | 57% | 1016 hPa | 0 mm | - | - | - |
| 1777822648 | 20.56° C | 61% | 1016 hPa | 0 mm | - | - | - |
| 1777822048 | 21.11° C | 62% | 1016 hPa | 0 mm | - | - | - |
| 1777821447 | 21.67° C | 60% | 1016 hPa | 0 mm | - | - | - |
| 1777820847 | 22.22° C | 57% | 1016 hPa | 0 mm | - | - | - |
| 1777820246 | 18.89° C | 73% | 1016 hPa | 0 mm | - | - | - |
| 1777819645 | 18.89° C | 73% | 1016 hPa | 0 mm | - | - | - |
| 1777819045 | 18.33° C | 73% | 1016 hPa | 0 mm | - | - | - |
| 1777818444 | 18.33° C | 73% | 1016 hPa | 0 mm | - | - | - |
| 1777817844 | 17.22° C | 76% | 1016 hPa | 0 mm | - | - | - |
| 1777817243 | 17.22° C | 76% | 1016 hPa | 0 mm | - | - | - |
| 1777816642 | 17.78° C | 77% | 1016 hPa | 0 mm | - | - | - |
| 1777816042 | 18.33° C | 77% | 1016 hPa | 0 mm | - | - | - |
| 1777815442 | 16.67° C | 81% | 1016 hPa | 0 mm | - | - | - |
| 1777814841 | 17.22° C | 82% | 1016 hPa | 0 mm | - | - | - |
* Rain latest hour (hover to see other rain measurements)
** Current wind speed in m/s (hover to see current wind gust speed)